sensor_id;sensor_type;location;lat;lon;timestamp;P1;durP1;ratioP1;P2;durP2;ratioP2
23814;SDS011;12088;53.078;8.720;2023-10-08T00:01:07;2.27;;;1.70;;
23814;SDS011;12088;53.078;8.720;2023-10-08T00:03:39;2.33;;;2.00;;
23814;SDS011;12088;53.078;8.720;2023-10-08T00:06:06;2.10;;;1.83;;
23814;SDS011;12088;53.078;8.720;2023-10-08T00:08:32;2.77;;;1.70;;
23814;SDS011;12088;53.078;8.720;2023-10-08T00:10:58;1.80;;;1.63;;
23814;SDS011;12088;53.078;8.720;2023-10-08T00:13:31;2.70;;;1.67;;
23814;SDS011;12088;53.078;8.720;2023-10-08T00:16:04;2.37;;;1.40;;
23814;SDS011;12088;53.078;8.720;2023-10-08T00:18:37;3.00;;;1.73;;
23814;SDS011;12088;53.078;8.720;2023-10-08T00:21:06;1.77;;;1.60;;
23814;SDS011;12088;53.078;8.720;2023-10-08T00:23:41;3.20;;;1.80;;
23814;SDS011;12088;53.078;8.720;2023-10-08T00:26:08;3.63;;;1.50;;
23814;SDS011;12088;53.078;8.720;2023-10-08T00:28:34;2.90;;;1.63;;
23814;SDS011;12088;53.078;8.720;2023-10-08T00:31:03;4.77;;;2.13;;
23814;SDS011;12088;53.078;8.720;2023-10-08T00:33:31;6.77;;;4.40;;
23814;SDS011;12088;53.078;8.720;2023-10-08T00:35:57;12.90;;;5.13;;
23814;SDS011;12088;53.078;8.720;2023-10-08T00:38:22;7.73;;;4.60;;
23814;SDS011;12088;53.078;8.720;2023-10-08T00:40:57;7.93;;;2.90;;
23814;SDS011;12088;53.078;8.720;2023-10-08T00:43:32;4.00;;;1.93;;
23814;SDS011;12088;53.078;8.720;2023-10-08T00:46:00;4.03;;;1.77;;
23814;SDS011;12088;53.078;8.720;2023-10-08T00:48:26;4.60;;;1.60;;
23814;SDS011;12088;53.078;8.720;2023-10-08T00:50:55;5.20;;;1.80;;
23814;SDS011;12088;53.078;8.720;2023-10-08T00:53:35;3.23;;;1.20;;
23814;SDS011;12088;53.078;8.720;2023-10-08T00:56:05;1.73;;;1.20;;
23814;SDS011;12088;53.078;8.720;2023-10-08T00:58:39;5.27;;;1.67;;
23814;SDS011;12088;53.078;8.720;2023-10-08T01:01:05;3.57;;;1.20;;
23814;SDS011;12088;53.078;8.720;2023-10-08T01:03:35;4.47;;;1.70;;
23814;SDS011;12088;53.078;8.720;2023-10-08T01:06:04;4.93;;;1.27;;
23814;SDS011;12088;53.078;8.720;2023-10-08T01:08:34;4.33;;;1.60;;
23814;SDS011;12088;53.078;8.720;2023-10-08T01:11:17;5.60;;;1.40;;
23814;SDS011;12088;53.078;8.720;2023-10-08T01:14:04;4.13;;;1.60;;
23814;SDS011;12088;53.078;8.720;2023-10-08T01:16:32;2.83;;;1.37;;
23814;SDS011;12088;53.078;8.720;2023-10-08T01:18:59;4.57;;;1.80;;
23814;SDS011;12088;53.078;8.720;2023-10-08T01:21:29;4.87;;;2.00;;
23814;SDS011;12088;53.078;8.720;2023-10-08T01:24:05;5.43;;;2.10;;
23814;SDS011;12088;53.078;8.720;2023-10-08T01:26:32;4.17;;;2.20;;
23814;SDS011;12088;53.078;8.720;2023-10-08T01:28:59;5.07;;;2.27;;
23814;SDS011;12088;53.078;8.720;2023-10-08T01:31:28;5.20;;;2.13;;
23814;SDS011;12088;53.078;8.720;2023-10-08T01:33:54;4.70;;;2.23;;
23814;SDS011;12088;53.078;8.720;2023-10-08T01:36:21;6.37;;;2.00;;
23814;SDS011;12088;53.078;8.720;2023-10-08T01:38:49;4.00;;;2.30;;
23814;SDS011;12088;53.078;8.720;2023-10-08T01:41:14;4.47;;;2.47;;
23814;SDS011;12088;53.078;8.720;2023-10-08T01:43:54;4.50;;;2.40;;
23814;SDS011;12088;53.078;8.720;2023-10-08T01:46:20;6.63;;;2.43;;
23814;SDS011;12088;53.078;8.720;2023-10-08T01:48:47;6.10;;;2.60;;
23814;SDS011;12088;53.078;8.720;2023-10-08T01:51:15;3.57;;;2.53;;
23814;SDS011;12088;53.078;8.720;2023-10-08T01:53:53;7.40;;;2.93;;
23814;SDS011;12088;53.078;8.720;2023-10-08T01:56:23;4.77;;;2.80;;
23814;SDS011;12088;53.078;8.720;2023-10-08T01:58:49;4.13;;;2.57;;
23814;SDS011;12088;53.078;8.720;2023-10-08T02:01:19;3.77;;;2.70;;
23814;SDS011;12088;53.078;8.720;2023-10-08T02:03:45;5.67;;;2.70;;
23814;SDS011;12088;53.078;8.720;2023-10-08T02:06:10;7.83;;;3.50;;
23814;SDS011;12088;53.078;8.720;2023-10-08T02:08:37;6.03;;;3.60;;
23814;SDS011;12088;53.078;8.720;2023-10-08T02:11:03;5.00;;;3.10;;
23814;SDS011;12088;53.078;8.720;2023-10-08T02:13:28;5.30;;;2.90;;
23814;SDS011;12088;53.078;8.720;2023-10-08T02:15:55;6.13;;;3.13;;
23814;SDS011;12088;53.078;8.720;2023-10-08T02:18:21;5.30;;;3.27;;
23814;SDS011;12088;53.078;8.720;2023-10-08T02:20:50;5.70;;;3.40;;
23814;SDS011;12088;53.078;8.720;2023-10-08T02:23:16;6.13;;;3.63;;
23814;SDS011;12088;53.078;8.720;2023-10-08T02:25:43;8.37;;;3.67;;
23814;SDS011;12088;53.078;8.720;2023-10-08T02:28:09;7.03;;;3.70;;
23814;SDS011;12088;53.078;8.720;2023-10-08T02:30:40;7.37;;;3.83;;
23814;SDS011;12088;53.078;8.720;2023-10-08T02:33:09;5.80;;;3.67;;
23814;SDS011;12088;53.078;8.720;2023-10-08T02:35:44;8.43;;;4.00;;
23814;SDS011;12088;53.078;8.720;2023-10-08T02:38:11;5.93;;;3.87;;
23814;SDS011;12088;53.078;8.720;2023-10-08T02:40:49;6.63;;;3.80;;
23814;SDS011;12088;53.078;8.720;2023-10-08T02:43:16;7.30;;;4.10;;
23814;SDS011;12088;53.078;8.720;2023-10-08T02:45:42;7.73;;;4.63;;
23814;SDS011;12088;53.078;8.720;2023-10-08T02:48:12;6.53;;;4.07;;
23814;SDS011;12088;53.078;8.720;2023-10-08T02:50:38;6.20;;;4.27;;
23814;SDS011;12088;53.078;8.720;2023-10-08T02:53:05;9.00;;;4.53;;
23814;SDS011;12088;53.078;8.720;2023-10-08T02:55:40;7.07;;;4.77;;
23814;SDS011;12088;53.078;8.720;2023-10-08T02:58:15;6.77;;;4.57;;
23814;SDS011;12088;53.078;8.720;2023-10-08T03:00:44;9.23;;;5.33;;
23814;SDS011;12088;53.078;8.720;2023-10-08T03:03:17;8.03;;;5.00;;
23814;SDS011;12088;53.078;8.720;2023-10-08T03:05:50;9.40;;;5.03;;
23814;SDS011;12088;53.078;8.720;2023-10-08T03:08:17;9.80;;;5.03;;
23814;SDS011;12088;53.078;8.720;2023-10-08T03:10:47;7.87;;;4.83;;
23814;SDS011;12088;53.078;8.720;2023-10-08T03:13:14;6.50;;;4.50;;
23814;SDS011;12088;53.078;8.720;2023-10-08T03:15:41;9.83;;;5.00;;
23814;SDS011;12088;53.078;8.720;2023-10-08T03:18:30;8.37;;;4.97;;
23814;SDS011;12088;53.078;8.720;2023-10-08T03:21:02;8.73;;;4.70;;
23814;SDS011;12088;53.078;8.720;2023-10-08T03:23:30;8.27;;;5.03;;
23814;SDS011;12088;53.078;8.720;2023-10-08T03:26:00;8.40;;;4.77;;
23814;SDS011;12088;53.078;8.720;2023-10-08T03:28:34;7.47;;;4.40;;
23814;SDS011;12088;53.078;8.720;2023-10-08T03:31:00;5.80;;;4.27;;
23814;SDS011;12088;53.078;8.720;2023-10-08T03:33:42;4.77;;;3.90;;
23814;SDS011;12088;53.078;8.720;2023-10-08T03:36:14;6.63;;;4.00;;
23814;SDS011;12088;53.078;8.720;2023-10-08T03:38:49;6.93;;;4.07;;
23814;SDS011;12088;53.078;8.720;2023-10-08T03:41:23;6.07;;;4.17;;
23814;SDS011;12088;53.078;8.720;2023-10-08T03:43:54;8.03;;;4.03;;
23814;SDS011;12088;53.078;8.720;2023-10-08T03:46:27;6.57;;;3.90;;
23814;SDS011;12088;53.078;8.720;2023-10-08T03:48:54;4.93;;;3.63;;
23814;SDS011;12088;53.078;8.720;2023-10-08T03:51:22;8.53;;;4.00;;
23814;SDS011;12088;53.078;8.720;2023-10-08T03:53:52;5.87;;;3.57;;
23814;SDS011;12088;53.078;8.720;2023-10-08T03:56:32;5.73;;;3.87;;
23814;SDS011;12088;53.078;8.720;2023-10-08T03:59:01;7.40;;;3.80;;
23814;SDS011;12088;53.078;8.720;2023-10-08T04:01:45;7.47;;;3.73;;
23814;SDS011;12088;53.078;8.720;2023-10-08T04:04:14;5.87;;;3.60;;
23814;SDS011;12088;53.078;8.720;2023-10-08T04:06:40;4.70;;;3.60;;
23814;SDS011;12088;53.078;8.720;2023-10-08T04:09:14;5.00;;;3.10;;
23814;SDS011;12088;53.078;8.720;2023-10-08T04:11:50;6.77;;;3.43;;
23814;SDS011;12088;53.078;8.720;2023-10-08T04:14:16;4.33;;;2.90;;
23814;SDS011;12088;53.078;8.720;2023-10-08T04:16:52;5.57;;;3.33;;
23814;SDS011;12088;53.078;8.720;2023-10-08T04:19:22;6.47;;;3.10;;
23814;SDS011;12088;53.078;8.720;2023-10-08T04:21:52;5.47;;;3.20;;
23814;SDS011;12088;53.078;8.720;2023-10-08T04:24:25;5.40;;;3.47;;
23814;SDS011;12088;53.078;8.720;2023-10-08T04:27:01;4.97;;;3.10;;
23814;SDS011;12088;53.078;8.720;2023-10-08T04:29:28;7.40;;;3.30;;
23814;SDS011;12088;53.078;8.720;2023-10-08T04:31:57;5.20;;;3.20;;
23814;SDS011;12088;53.078;8.720;2023-10-08T04:34:32;6.03;;;3.17;;
23814;SDS011;12088;53.078;8.720;2023-10-08T04:36:59;6.43;;;3.53;;
23814;SDS011;12088;53.078;8.720;2023-10-08T04:39:29;8.07;;;3.40;;
23814;SDS011;12088;53.078;8.720;2023-10-08T04:42:01;5.50;;;3.10;;
23814;SDS011;12088;53.078;8.720;2023-10-08T04:44:39;5.43;;;3.10;;
23814;SDS011;12088;53.078;8.720;2023-10-08T04:47:08;7.70;;;3.13;;
23814;SDS011;12088;53.078;8.720;2023-10-08T04:49:34;7.73;;;3.70;;
23814;SDS011;12088;53.078;8.720;2023-10-08T04:52:06;5.47;;;3.50;;
23814;SDS011;12088;53.078;8.720;2023-10-08T04:54:44;7.03;;;3.27;;
23814;SDS011;12088;53.078;8.720;2023-10-08T04:57:19;10.47;;;4.17;;
23814;SDS011;12088;53.078;8.720;2023-10-08T04:59:50;9.40;;;4.50;;
23814;SDS011;12088;53.078;8.720;2023-10-08T05:02:16;12.10;;;4.20;;
23814;SDS011;12088;53.078;8.720;2023-10-08T05:05:00;7.07;;;3.73;;
23814;SDS011;12088;53.078;8.720;2023-10-08T05:07:34;5.57;;;3.30;;
23814;SDS011;12088;53.078;8.720;2023-10-08T05:10:09;6.33;;;3.93;;
23814;SDS011;12088;53.078;8.720;2023-10-08T05:12:55;7.97;;;3.77;;
23814;SDS011;12088;53.078;8.720;2023-10-08T05:15:31;9.57;;;3.77;;
23814;SDS011;12088;53.078;8.720;2023-10-08T05:18:06;7.40;;;3.63;;
23814;SDS011;12088;53.078;8.720;2023-10-08T05:20:49;9.93;;;4.17;;
23814;SDS011;12088;53.078;8.720;2023-10-08T05:23:15;9.37;;;4.10;;
23814;SDS011;12088;53.078;8.720;2023-10-08T05:25:49;8.27;;;3.50;;
23814;SDS011;12088;53.078;8.720;2023-10-08T05:28:24;11.00;;;4.03;;
23814;SDS011;12088;53.078;8.720;2023-10-08T05:30:50;15.40;;;3.40;;
23814;SDS011;12088;53.078;8.720;2023-10-08T05:33:36;7.90;;;4.00;;
23814;SDS011;12088;53.078;8.720;2023-10-08T05:36:31;7.27;;;3.93;;
23814;SDS011;12088;53.078;8.720;2023-10-08T05:39:14;7.30;;;3.27;;
23814;SDS011;12088;53.078;8.720;2023-10-08T05:41:49;6.07;;;3.07;;
23814;SDS011;12088;53.078;8.720;2023-10-08T05:44:34;6.63;;;2.87;;
23814;SDS011;12088;53.078;8.720;2023-10-08T05:47:08;6.70;;;2.93;;
23814;SDS011;12088;53.078;8.720;2023-10-08T05:49:39;7.73;;;3.37;;
23814;SDS011;12088;53.078;8.720;2023-10-08T05:52:19;5.87;;;2.93;;
23814;SDS011;12088;53.078;8.720;2023-10-08T05:54:53;6.07;;;3.30;;
23814;SDS011;12088;53.078;8.720;2023-10-08T05:57:37;9.70;;;3.00;;
23814;SDS011;12088;53.078;8.720;2023-10-08T06:00:11;7.70;;;3.67;;
23814;SDS011;12088;53.078;8.720;2023-10-08T06:02:41;6.00;;;3.43;;
23814;SDS011;12088;53.078;8.720;2023-10-08T06:05:10;9.23;;;3.63;;
23814;SDS011;12088;53.078;8.720;2023-10-08T06:10:31;8.33;;;2.97;;
23814;SDS011;12088;53.078;8.720;2023-10-08T06:13:01;6.93;;;3.50;;
23814;SDS011;12088;53.078;8.720;2023-10-08T06:15:47;6.37;;;3.17;;
23814;SDS011;12088;53.078;8.720;2023-10-08T06:18:15;6.93;;;3.57;;
23814;SDS011;12088;53.078;8.720;2023-10-08T06:20:41;6.33;;;3.20;;
23814;SDS011;12088;53.078;8.720;2023-10-08T06:23:14;5.70;;;2.83;;
23814;SDS011;12088;53.078;8.720;2023-10-08T06:25:44;5.50;;;3.10;;
23814;SDS011;12088;53.078;8.720;2023-10-08T06:28:13;6.23;;;3.17;;
23814;SDS011;12088;53.078;8.720;2023-10-08T06:30:51;6.33;;;2.97;;
23814;SDS011;12088;53.078;8.720;2023-10-08T06:33:22;7.27;;;3.00;;
23814;SDS011;12088;53.078;8.720;2023-10-08T06:35:55;8.93;;;3.10;;
23814;SDS011;12088;53.078;8.720;2023-10-08T06:38:28;8.73;;;2.93;;
23814;SDS011;12088;53.078;8.720;2023-10-08T06:40:56;4.60;;;2.70;;
23814;SDS011;12088;53.078;8.720;2023-10-08T06:43:25;4.73;;;2.90;;
23814;SDS011;12088;53.078;8.720;2023-10-08T06:45:54;6.43;;;2.90;;
23814;SDS011;12088;53.078;8.720;2023-10-08T06:48:23;7.33;;;2.70;;
23814;SDS011;12088;53.078;8.720;2023-10-08T06:50:51;7.33;;;2.67;;
23814;SDS011;12088;53.078;8.720;2023-10-08T06:53:24;8.50;;;2.43;;
23814;SDS011;12088;53.078;8.720;2023-10-08T06:55:50;6.60;;;2.90;;
23814;SDS011;12088;53.078;8.720;2023-10-08T06:58:25;7.10;;;2.40;;
23814;SDS011;12088;53.078;8.720;2023-10-08T07:00:51;7.70;;;2.30;;
23814;SDS011;12088;53.078;8.720;2023-10-08T07:03:17;6.63;;;2.87;;
23814;SDS011;12088;53.078;8.720;2023-10-08T07:05:43;5.30;;;2.30;;
23814;SDS011;12088;53.078;8.720;2023-10-08T07:08:18;5.73;;;2.60;;
23814;SDS011;12088;53.078;8.720;2023-10-08T07:10:48;5.37;;;2.13;;
23814;SDS011;12088;53.078;8.720;2023-10-08T07:13:18;8.90;;;2.67;;
23814;SDS011;12088;53.078;8.720;2023-10-08T07:15:47;7.53;;;2.63;;
23814;SDS011;12088;53.078;8.720;2023-10-08T07:18:17;7.37;;;3.17;;
23814;SDS011;12088;53.078;8.720;2023-10-08T07:20:53;7.63;;;2.73;;
23814;SDS011;12088;53.078;8.720;2023-10-08T07:23:22;5.50;;;2.33;;
23814;SDS011;12088;53.078;8.720;2023-10-08T07:25:56;6.77;;;2.40;;
23814;SDS011;12088;53.078;8.720;2023-10-08T07:28:41;6.73;;;2.23;;
23814;SDS011;12088;53.078;8.720;2023-10-08T07:31:14;7.57;;;2.20;;
23814;SDS011;12088;53.078;8.720;2023-10-08T07:33:41;6.57;;;2.27;;
23814;SDS011;12088;53.078;8.720;2023-10-08T07:36:11;7.50;;;2.37;;
23814;SDS011;12088;53.078;8.720;2023-10-08T07:38:40;5.00;;;2.30;;
23814;SDS011;12088;53.078;8.720;2023-10-08T07:41:10;7.67;;;2.90;;
23814;SDS011;12088;53.078;8.720;2023-10-08T07:43:42;4.63;;;2.23;;
23814;SDS011;12088;53.078;8.720;2023-10-08T07:46:09;4.83;;;1.97;;
23814;SDS011;12088;53.078;8.720;2023-10-08T07:48:36;4.50;;;1.93;;
23814;SDS011;12088;53.078;8.720;2023-10-08T07:51:07;10.07;;;2.60;;
23814;SDS011;12088;53.078;8.720;2023-10-08T07:53:33;7.57;;;2.07;;
23814;SDS011;12088;53.078;8.720;2023-10-08T07:56:07;11.17;;;2.50;;
23814;SDS011;12088;53.078;8.720;2023-10-08T07:58:34;12.93;;;3.03;;
23814;SDS011;12088;53.078;8.720;2023-10-08T08:01:04;4.67;;;2.10;;
23814;SDS011;12088;53.078;8.720;2023-10-08T08:03:38;8.80;;;2.20;;
23814;SDS011;12088;53.078;8.720;2023-10-08T08:06:06;5.23;;;1.97;;
23814;SDS011;12088;53.078;8.720;2023-10-08T08:08:33;4.73;;;1.80;;
23814;SDS011;12088;53.078;8.720;2023-10-08T08:11:01;8.77;;;2.50;;
23814;SDS011;12088;53.078;8.720;2023-10-08T08:13:35;6.00;;;2.07;;
23814;SDS011;12088;53.078;8.720;2023-10-08T08:16:01;6.07;;;2.20;;
23814;SDS011;12088;53.078;8.720;2023-10-08T08:18:52;7.60;;;1.90;;
23814;SDS011;12088;53.078;8.720;2023-10-08T08:21:22;7.07;;;1.88;;
23814;SDS011;12088;53.078;8.720;2023-10-08T08:23:48;6.43;;;2.00;;
23814;SDS011;12088;53.078;8.720;2023-10-08T08:26:18;5.97;;;1.90;;
23814;SDS011;12088;53.078;8.720;2023-10-08T08:28:58;5.87;;;2.03;;
23814;SDS011;12088;53.078;8.720;2023-10-08T08:31:27;7.03;;;1.77;;
23814;SDS011;12088;53.078;8.720;2023-10-08T08:33:57;7.45;;;1.80;;
23814;SDS011;12088;53.078;8.720;2023-10-08T08:36:44;4.23;;;1.70;;
23814;SDS011;12088;53.078;8.720;2023-10-08T08:39:13;7.17;;;1.87;;
23814;SDS011;12088;53.078;8.720;2023-10-08T08:41:52;5.23;;;2.00;;
23814;SDS011;12088;53.078;8.720;2023-10-08T08:44:30;7.40;;;2.30;;
23814;SDS011;12088;53.078;8.720;2023-10-08T08:46:58;6.27;;;2.30;;
23814;SDS011;12088;53.078;8.720;2023-10-08T08:49:29;7.13;;;1.77;;
23814;SDS011;12088;53.078;8.720;2023-10-08T08:51:59;8.60;;;2.20;;
23814;SDS011;12088;53.078;8.720;2023-10-08T08:54:26;7.40;;;2.00;;
23814;SDS011;12088;53.078;8.720;2023-10-08T08:56:55;8.05;;;2.08;;
23814;SDS011;12088;53.078;8.720;2023-10-08T08:59:27;5.78;;;1.88;;
23814;SDS011;12088;53.078;8.720;2023-10-08T09:01:56;7.57;;;2.05;;
23814;SDS011;12088;53.078;8.720;2023-10-08T09:04:31;10.02;;;2.45;;
23814;SDS011;12088;53.078;8.720;2023-10-08T09:07:01;6.70;;;1.70;;
23814;SDS011;12088;53.078;8.720;2023-10-08T09:09:33;8.10;;;1.95;;
23814;SDS011;12088;53.078;8.720;2023-10-08T09:12:04;20.52;;;3.70;;
23814;SDS011;12088;53.078;8.720;2023-10-08T09:14:31;15.40;;;2.55;;
23814;SDS011;12088;53.078;8.720;2023-10-08T09:16:57;12.68;;;2.53;;
23814;SDS011;12088;53.078;8.720;2023-10-08T09:19:24;23.80;;;3.22;;
23814;SDS011;12088;53.078;8.720;2023-10-08T09:24:36;14.32;;;2.35;;
23814;SDS011;12088;53.078;8.720;2023-10-08T09:27:03;22.15;;;3.80;;
23814;SDS011;12088;53.078;8.720;2023-10-08T09:29:34;11.88;;;2.55;;
23814;SDS011;12088;53.078;8.720;2023-10-08T09:32:04;13.50;;;2.13;;
23814;SDS011;12088;53.078;8.720;2023-10-08T09:34:31;11.82;;;2.42;;
23814;SDS011;12088;53.078;8.720;2023-10-08T09:36:58;9.10;;;2.13;;
23814;SDS011;12088;53.078;8.720;2023-10-08T09:39:25;5.72;;;1.65;;
23814;SDS011;12088;53.078;8.720;2023-10-08T09:41:56;9.23;;;2.03;;
23814;SDS011;12088;53.078;8.720;2023-10-08T09:44:23;11.48;;;2.13;;
23814;SDS011;12088;53.078;8.720;2023-10-08T09:46:54;17.13;;;3.13;;
23814;SDS011;12088;53.078;8.720;2023-10-08T09:49:24;13.43;;;2.35;;
23814;SDS011;12088;53.078;8.720;2023-10-08T09:52:04;34.75;;;4.35;;
23814;SDS011;12088;53.078;8.720;2023-10-08T09:54:35;12.30;;;2.42;;
23814;SDS011;12088;53.078;8.720;2023-10-08T09:57:08;13.02;;;2.00;;
23814;SDS011;12088;53.078;8.720;2023-10-08T09:59:35;6.15;;;1.88;;
23814;SDS011;12088;53.078;8.720;2023-10-08T10:02:03;11.80;;;2.10;;
23814;SDS011;12088;53.078;8.720;2023-10-08T10:04:30;17.48;;;2.90;;
23814;SDS011;12088;53.078;8.720;2023-10-08T10:07:07;16.27;;;2.58;;
23814;SDS011;12088;53.078;8.720;2023-10-08T10:09:45;7.25;;;1.83;;
23814;SDS011;12088;53.078;8.720;2023-10-08T10:12:12;10.05;;;2.03;;
23814;SDS011;12088;53.078;8.720;2023-10-08T10:14:43;13.20;;;1.75;;
23814;SDS011;12088;53.078;8.720;2023-10-08T10:17:15;7.68;;;1.73;;
23814;SDS011;12088;53.078;8.720;2023-10-08T10:19:49;12.50;;;2.05;;
23814;SDS011;12088;53.078;8.720;2023-10-08T10:22:28;9.88;;;1.80;;
23814;SDS011;12088;53.078;8.720;2023-10-08T10:24:59;14.65;;;2.70;;
23814;SDS011;12088;53.078;8.720;2023-10-08T10:27:28;22.08;;;3.67;;
23814;SDS011;12088;53.078;8.720;2023-10-08T10:30:05;6.43;;;1.60;;
23814;SDS011;12088;53.078;8.720;2023-10-08T10:32:43;12.13;;;2.05;;
23814;SDS011;12088;53.078;8.720;2023-10-08T10:35:14;3.78;;;1.42;;
23814;SDS011;12088;53.078;8.720;2023-10-08T10:37:43;4.57;;;1.30;;
23814;SDS011;12088;53.078;8.720;2023-10-08T10:40:21;5.20;;;1.20;;
23814;SDS011;12088;53.078;8.720;2023-10-08T10:43:26;9.70;;;1.48;;
23814;SDS011;12088;53.078;8.720;2023-10-08T10:46:09;5.22;;;1.33;;
23814;SDS011;12088;53.078;8.720;2023-10-08T10:48:55;11.10;;;2.13;;
23814;SDS011;12088;53.078;8.720;2023-10-08T10:51:40;5.78;;;1.35;;
23814;SDS011;12088;53.078;8.720;2023-10-08T10:54:07;14.60;;;2.05;;
23814;SDS011;12088;53.078;8.720;2023-10-08T10:56:35;15.10;;;2.22;;
23814;SDS011;12088;53.078;8.720;2023-10-08T10:59:12;16.35;;;2.65;;
23814;SDS011;12088;53.078;8.720;2023-10-08T11:01:49;4.22;;;1.38;;
23814;SDS011;12088;53.078;8.720;2023-10-08T11:04:18;6.22;;;1.40;;
23814;SDS011;12088;53.078;8.720;2023-10-08T11:06:45;5.53;;;1.52;;
23814;SDS011;12088;53.078;8.720;2023-10-08T11:09:15;7.65;;;1.65;;
23814;SDS011;12088;53.078;8.720;2023-10-08T11:11:48;17.70;;;2.88;;
23814;SDS011;12088;53.078;8.720;2023-10-08T11:14:19;3.85;;;1.30;;
23814;SDS011;12088;53.078;8.720;2023-10-08T11:16:47;4.80;;;1.17;;
23814;SDS011;12088;53.078;8.720;2023-10-08T11:19:13;6.82;;;1.45;;
23814;SDS011;12088;53.078;8.720;2023-10-08T11:21:50;5.55;;;1.40;;
23814;SDS011;12088;53.078;8.720;2023-10-08T11:24:31;4.32;;;1.30;;
23814;SDS011;12088;53.078;8.720;2023-10-08T11:26:59;4.93;;;1.42;;
23814;SDS011;12088;53.078;8.720;2023-10-08T11:29:41;3.17;;;1.10;;
23814;SDS011;12088;53.078;8.720;2023-10-08T11:32:21;5.30;;;1.25;;
23814;SDS011;12088;53.078;8.720;2023-10-08T11:34:54;6.22;;;1.88;;
23814;SDS011;12088;53.078;8.720;2023-10-08T11:37:44;4.70;;;1.30;;
23814;SDS011;12088;53.078;8.720;2023-10-08T11:40:25;4.75;;;1.48;;
23814;SDS011;12088;53.078;8.720;2023-10-08T11:42:54;25.08;;;3.15;;
23814;SDS011;12088;53.078;8.720;2023-10-08T11:45:24;7.93;;;2.28;;
23814;SDS011;12088;53.078;8.720;2023-10-08T11:48:03;9.35;;;2.03;;
23814;SDS011;12088;53.078;8.720;2023-10-08T11:50:37;5.50;;;1.27;;
23814;SDS011;12088;53.078;8.720;2023-10-08T11:53:03;4.30;;;1.67;;
23814;SDS011;12088;53.078;8.720;2023-10-08T11:55:33;4.88;;;1.88;;
23814;SDS011;12088;53.078;8.720;2023-10-08T11:58:04;4.53;;;1.30;;
23814;SDS011;12088;53.078;8.720;2023-10-08T12:00:42;5.43;;;1.58;;
23814;SDS011;12088;53.078;8.720;2023-10-08T12:03:14;5.82;;;1.30;;
23814;SDS011;12088;53.078;8.720;2023-10-08T12:05:49;9.98;;;2.00;;
23814;SDS011;12088;53.078;8.720;2023-10-08T12:08:24;4.18;;;1.52;;
23814;SDS011;12088;53.078;8.720;2023-10-08T12:10:52;4.38;;;1.50;;
23814;SDS011;12088;53.078;8.720;2023-10-08T12:13:19;6.07;;;1.75;;
23814;SDS011;12088;53.078;8.720;2023-10-08T12:15:53;4.95;;;1.80;;
23814;SDS011;12088;53.078;8.720;2023-10-08T12:18:31;3.92;;;1.60;;
23814;SDS011;12088;53.078;8.720;2023-10-08T12:21:04;5.38;;;1.60;;
23814;SDS011;12088;53.078;8.720;2023-10-08T12:23:35;4.38;;;1.67;;
23814;SDS011;12088;53.078;8.720;2023-10-08T12:26:03;5.40;;;1.77;;
23814;SDS011;12088;53.078;8.720;2023-10-08T12:28:32;5.45;;;1.60;;
23814;SDS011;12088;53.078;8.720;2023-10-08T12:30:59;6.47;;;1.80;;
23814;SDS011;12088;53.078;8.720;2023-10-08T12:33:25;4.85;;;1.73;;
23814;SDS011;12088;53.078;8.720;2023-10-08T12:35:51;6.90;;;1.83;;
23814;SDS011;12088;53.078;8.720;2023-10-08T12:38:23;4.50;;;1.60;;
23814;SDS011;12088;53.078;8.720;2023-10-08T12:40:53;7.75;;;1.77;;
23814;SDS011;12088;53.078;8.720;2023-10-08T12:43:19;7.45;;;1.98;;
23814;SDS011;12088;53.078;8.720;2023-10-08T12:45:49;8.13;;;1.70;;
23814;SDS011;12088;53.078;8.720;2023-10-08T12:48:23;6.63;;;1.70;;
23814;SDS011;12088;53.078;8.720;2023-10-08T12:50:51;6.60;;;3.45;;
23814;SDS011;12088;53.078;8.720;2023-10-08T12:53:25;4.93;;;1.92;;
23814;SDS011;12088;53.078;8.720;2023-10-08T12:55:55;8.32;;;3.15;;
23814;SDS011;12088;53.078;8.720;2023-10-08T12:58:23;9.60;;;2.53;;
23814;SDS011;12088;53.078;8.720;2023-10-08T13:00:55;5.15;;;1.70;;
23814;SDS011;12088;53.078;8.720;2023-10-08T13:03:24;4.30;;;1.70;;
23814;SDS011;12088;53.078;8.720;2023-10-08T13:05:51;7.25;;;1.63;;
23814;SDS011;12088;53.078;8.720;2023-10-08T13:08:18;4.50;;;1.60;;
23814;SDS011;12088;53.078;8.720;2023-10-08T13:10:45;3.63;;;1.60;;
23814;SDS011;12088;53.078;8.720;2023-10-08T13:13:12;12.18;;;2.65;;
23814;SDS011;12088;53.078;8.720;2023-10-08T13:15:38;3.70;;;1.50;;
23814;SDS011;12088;53.078;8.720;2023-10-08T13:18:06;3.88;;;1.40;;
23814;SDS011;12088;53.078;8.720;2023-10-08T13:20:32;7.13;;;1.67;;
23814;SDS011;12088;53.078;8.720;2023-10-08T13:22:59;16.95;;;3.22;;
23814;SDS011;12088;53.078;8.720;2023-10-08T13:25:25;6.68;;;1.80;;
23814;SDS011;12088;53.078;8.720;2023-10-08T13:27:51;6.30;;;2.15;;
23814;SDS011;12088;53.078;8.720;2023-10-08T13:30:17;4.68;;;1.67;;
23814;SDS011;12088;53.078;8.720;2023-10-08T13:32:43;5.53;;;1.50;;
23814;SDS011;12088;53.078;8.720;2023-10-08T13:35:10;7.30;;;1.80;;
23814;SDS011;12088;53.078;8.720;2023-10-08T13:37:36;5.72;;;1.77;;
23814;SDS011;12088;53.078;8.720;2023-10-08T13:40:02;5.80;;;1.40;;
23814;SDS011;12088;53.078;8.720;2023-10-08T13:42:28;5.50;;;1.50;;
23814;SDS011;12088;53.078;8.720;2023-10-08T13:44:54;4.47;;;1.50;;
23814;SDS011;12088;53.078;8.720;2023-10-08T13:47:23;5.95;;;1.50;;
23814;SDS011;12088;53.078;8.720;2023-10-08T13:49:54;3.72;;;1.42;;
23814;SDS011;12088;53.078;8.720;2023-10-08T13:52:20;4.28;;;1.60;;
23814;SDS011;12088;53.078;8.720;2023-10-08T13:54:51;5.90;;;1.83;;
23814;SDS011;12088;53.078;8.720;2023-10-08T13:57:19;4.18;;;1.98;;
23814;SDS011;12088;53.078;8.720;2023-10-08T13:59:48;6.43;;;1.65;;
23814;SDS011;12088;53.078;8.720;2023-10-08T14:02:14;6.25;;;1.60;;
23814;SDS011;12088;53.078;8.720;2023-10-08T14:04:43;7.13;;;1.50;;
23814;SDS011;12088;53.078;8.720;2023-10-08T14:07:10;5.30;;;1.60;;
23814;SDS011;12088;53.078;8.720;2023-10-08T14:09:45;6.20;;;1.92;;
23814;SDS011;12088;53.078;8.720;2023-10-08T14:12:11;3.60;;;1.40;;
23814;SDS011;12088;53.078;8.720;2023-10-08T14:14:42;3.80;;;1.30;;
23814;SDS011;12088;53.078;8.720;2023-10-08T14:17:11;5.95;;;1.70;;
23814;SDS011;12088;53.078;8.720;2023-10-08T14:19:40;6.75;;;1.67;;
23814;SDS011;12088;53.078;8.720;2023-10-08T14:22:24;5.03;;;1.40;;
23814;SDS011;12088;53.078;8.720;2023-10-08T14:24:50;4.47;;;1.80;;
23814;SDS011;12088;53.078;8.720;2023-10-08T14:27:28;5.53;;;1.58;;
23814;SDS011;12088;53.078;8.720;2023-10-08T14:29:57;6.85;;;1.50;;
23814;SDS011;12088;53.078;8.720;2023-10-08T14:32:26;6.45;;;1.63;;
23814;SDS011;12088;53.078;8.720;2023-10-08T14:34:52;4.68;;;1.45;;
23814;SDS011;12088;53.078;8.720;2023-10-08T14:37:37;5.72;;;1.33;;
23814;SDS011;12088;53.078;8.720;2023-10-08T14:40:21;4.47;;;1.40;;
23814;SDS011;12088;53.078;8.720;2023-10-08T14:43:05;4.88;;;1.65;;
23814;SDS011;12088;53.078;8.720;2023-10-08T14:45:36;4.35;;;1.60;;
23814;SDS011;12088;53.078;8.720;2023-10-08T14:48:02;3.90;;;1.80;;
23814;SDS011;12088;53.078;8.720;2023-10-08T14:50:30;7.65;;;2.05;;
23814;SDS011;12088;53.078;8.720;2023-10-08T14:52:57;4.60;;;1.85;;
23814;SDS011;12088;53.078;8.720;2023-10-08T14:55:29;5.07;;;1.60;;
23814;SDS011;12088;53.078;8.720;2023-10-08T14:57:56;4.32;;;1.40;;
23814;SDS011;12088;53.078;8.720;2023-10-08T15:00:21;4.18;;;1.45;;
23814;SDS011;12088;53.078;8.720;2023-10-08T15:02:54;6.32;;;1.80;;
23814;SDS011;12088;53.078;8.720;2023-10-08T15:05:21;5.20;;;1.77;;
23814;SDS011;12088;53.078;8.720;2023-10-08T15:07:48;6.53;;;1.70;;
23814;SDS011;12088;53.078;8.720;2023-10-08T15:10:15;8.30;;;1.95;;
23814;SDS011;12088;53.078;8.720;2023-10-08T15:12:42;4.13;;;1.60;;
23814;SDS011;12088;53.078;8.720;2023-10-08T15:15:08;5.43;;;2.05;;